createdAt,value
2023-04-25T00:00:45.335Z,26.20
2023-04-25T00:01:45.400Z,26.14
2023-04-25T00:02:45.559Z,25.24
2023-04-25T00:03:45.688Z,25.85
2023-04-25T00:04:45.876Z,26.86
2023-04-25T00:05:45.622Z,26.94
2023-04-25T00:06:45.606Z,26.40
2023-04-25T00:07:45.694Z,27.30
2023-04-25T00:08:45.700Z,26.49
2023-04-25T00:09:45.768Z,27.04
2023-04-25T00:10:46.624Z,26.27
2023-04-25T00:11:45.858Z,28.17
2023-04-25T00:12:45.875Z,26.42
2023-04-25T00:13:45.981Z,27.20
2023-04-25T00:14:45.974Z,28.08
2023-04-25T00:15:46.075Z,27.25
2023-04-25T00:16:46.099Z,27.04
2023-04-25T00:17:46.134Z,29.29
2023-04-25T00:18:46.182Z,28.73
2023-04-25T00:19:46.259Z,29.19
2023-04-25T00:20:46.272Z,30.05
2023-04-25T00:21:46.329Z,30.00
2023-04-25T00:22:46.385Z,29.62
2023-04-25T00:23:46.414Z,29.01
2023-04-25T00:24:46.451Z,29.73
2023-04-25T00:25:46.521Z,29.34
2023-04-25T00:26:46.582Z,30.28
2023-04-25T00:27:46.599Z,29.89
2023-04-25T00:28:46.645Z,28.87
2023-04-25T00:29:46.710Z,30.22
2023-04-25T00:30:46.741Z,29.88
2023-04-25T00:31:46.875Z,28.32
2023-04-25T00:32:46.938Z,28.35
2023-04-25T00:33:46.900Z,29.65
2023-04-25T00:34:46.956Z,29.61
2023-04-25T00:35:46.966Z,30.22
2023-04-25T00:36:47.081Z,30.10
2023-04-25T00:37:47.093Z,29.81
2023-04-25T00:38:47.130Z,30.18
2023-04-25T00:39:47.155Z,30.43
2023-04-25T00:40:47.190Z,30.77
2023-04-25T00:41:47.265Z,31.35
2023-04-25T00:42:47.283Z,31.46
2023-04-25T00:43:47.355Z,30.90
2023-04-25T00:44:47.392Z,32.15
2023-04-25T00:45:47.424Z,31.92
2023-04-25T00:46:47.539Z,32.91
2023-04-25T00:47:47.590Z,32.68
2023-04-25T00:48:47.577Z,31.43
2023-04-25T00:49:47.643Z,31.91
2023-04-25T00:50:47.687Z,33.49
2023-04-25T00:51:47.726Z,33.71
2023-04-25T00:52:47.774Z,34.86
2023-04-25T00:53:47.842Z,32.81
2023-04-25T00:54:47.875Z,34.81
2023-04-25T00:55:47.913Z,34.54
2023-04-25T00:56:47.974Z,35.50
2023-04-25T00:57:48.014Z,35.41
2023-04-25T00:58:48.038Z,35.60
2023-04-25T00:59:48.086Z,35.95
2023-04-25T01:00:48.207Z,36.15
2023-04-25T01:01:48.232Z,36.10
2023-04-25T01:02:48.460Z,36.79
2023-04-25T01:03:48.408Z,37.49
2023-04-25T01:04:48.340Z,36.90
2023-04-25T01:05:48.398Z,37.03
2023-04-25T01:06:48.452Z,36.43
2023-04-25T01:07:48.498Z,37.77
2023-04-25T01:08:48.517Z,38.18
2023-04-25T01:09:48.617Z,37.83
2023-04-25T01:10:48.614Z,36.83
2023-04-25T01:11:48.678Z,38.15
2023-04-25T01:12:48.774Z,39.21
2023-04-25T01:13:49.159Z,39.56
2023-04-25T01:14:48.833Z,39.65
2023-04-25T01:15:48.868Z,40.08
2023-04-25T01:16:48.955Z,40.00
2023-04-25T01:17:49.043Z,40.04
2023-04-25T01:18:49.064Z,39.02
2023-04-25T01:19:49.101Z,40.43
2023-04-25T01:20:49.154Z,40.45
2023-04-25T01:21:49.194Z,40.05
2023-04-25T01:22:49.252Z,41.44
2023-04-25T01:23:49.502Z,41.26
2023-04-25T01:24:49.340Z,40.36
2023-04-25T01:25:49.377Z,41.10
2023-04-25T01:26:49.440Z,40.95
2023-04-25T01:27:49.553Z,40.12
2023-04-25T01:28:49.493Z,40.65
2023-04-25T01:29:49.577Z,42.01
2023-04-25T01:30:49.629Z,41.51
2023-04-25T01:31:49.682Z,41.72
2023-04-25T01:32:49.753Z,42.17
2023-04-25T01:33:49.978Z,43.48
2023-04-25T01:34:49.834Z,42.12
2023-04-25T01:35:49.861Z,43.53
2023-04-25T01:36:49.914Z,43.75
2023-04-25T01:37:49.997Z,44.04
2023-04-25T01:38:50.029Z,44.85
2023-04-25T01:39:50.111Z,43.43
2023-04-25T01:40:50.141Z,44.24
2023-04-25T01:41:50.187Z,44.11
2023-04-25T01:42:50.238Z,42.71
2023-04-25T01:43:50.449Z,43.36
2023-04-25T01:44:50.385Z,44.49
2023-04-25T01:45:50.436Z,43.24
2023-04-25T01:46:50.480Z,45.53
2023-04-25T01:47:50.610Z,45.39
2023-04-25T01:48:50.583Z,45.63
2023-04-25T01:49:50.651Z,44.57
2023-04-25T01:50:50.722Z,44.74
2023-04-25T01:51:50.751Z,45.05
2023-04-25T01:52:50.809Z,43.56
2023-04-25T01:53:51.066Z,44.59
2023-04-25T01:54:50.929Z,43.79
2023-04-25T01:55:50.953Z,45.55
2023-04-25T01:56:50.990Z,44.46
2023-04-25T01:57:51.053Z,42.62
2023-04-25T01:58:51.122Z,44.22
2023-04-25T01:59:51.150Z,45.17
2023-04-25T02:00:51.226Z,45.17
2023-04-25T02:01:51.381Z,44.44
2023-04-25T02:02:51.404Z,43.33
2023-04-25T02:03:51.804Z,44.13
2023-04-25T02:04:51.632Z,44.24
2023-04-25T02:05:51.510Z,44.24
2023-04-25T02:06:51.562Z,43.46
2023-04-25T02:07:51.645Z,44.20
2023-04-25T02:08:51.656Z,43.27
2023-04-25T02:09:51.722Z,43.19
2023-04-25T02:10:51.803Z,45.15
2023-04-25T02:11:51.859Z,44.47
2023-04-25T02:12:51.908Z,44.42
2023-04-25T02:13:52.178Z,43.73
2023-04-25T02:14:52.041Z,43.86
2023-04-25T02:15:52.162Z,45.24
2023-04-25T02:16:52.294Z,44.18
2023-04-25T02:17:52.270Z,45.77
2023-04-25T02:18:52.262Z,44.57
2023-04-25T02:19:52.342Z,44.29
2023-04-25T02:20:52.404Z,45.41
2023-04-25T02:21:52.416Z,45.55
2023-04-25T02:22:52.483Z,45.12
2023-04-25T02:23:52.737Z,45.55
2023-04-25T02:24:52.592Z,44.93
2023-04-25T02:25:52.669Z,45.79
2023-04-25T02:26:52.730Z,46.12
2023-04-25T02:27:52.774Z,45.75
2023-04-25T02:28:52.837Z,47.12
2023-04-25T02:29:52.909Z,46.58
2023-04-25T02:30:53.032Z,46.73
2023-04-25T02:31:53.110Z,46.05
2023-04-25T02:32:53.141Z,46.63
2023-04-25T02:33:53.339Z,45.62
2023-04-25T02:34:53.164Z,46.88
2023-04-25T02:35:53.240Z,47.50
2023-04-25T02:36:53.314Z,47.32
2023-04-25T02:37:53.393Z,47.82
2023-04-25T02:38:53.438Z,47.53
2023-04-25T02:39:53.473Z,48.47
2023-04-25T02:40:53.561Z,48.90
2023-04-25T02:41:53.601Z,50.70
2023-04-25T02:42:53.639Z,48.89
2023-04-25T02:43:53.692Z,49.34
2023-04-25T02:44:53.780Z,49.79
2023-04-25T02:45:53.836Z,50.07
2023-04-25T02:46:54.047Z,50.05
2023-04-25T02:47:54.012Z,52.71
2023-04-25T02:48:54.007Z,51.57
2023-04-25T02:49:54.089Z,52.82
2023-04-25T02:50:54.139Z,52.12
2023-04-25T02:51:54.189Z,53.26
2023-04-25T02:52:54.264Z,52.12
2023-04-25T02:53:54.312Z,51.18
2023-04-25T02:54:54.403Z,52.87
2023-04-25T02:55:54.459Z,51.25
2023-04-25T02:56:54.486Z,52.43
2023-04-25T02:57:54.578Z,52.36
2023-04-25T02:58:54.646Z,52.35
2023-04-25T02:59:54.685Z,53.16
2023-04-25T03:00:54.781Z,53.81
2023-04-25T03:01:54.804Z,54.78
2023-04-25T03:02:54.992Z,56.62
2023-04-25T03:03:55.318Z,56.07
2023-04-25T03:04:54.970Z,57.37
2023-04-25T03:05:55.029Z,58.22
2023-04-25T03:06:55.126Z,59.41
2023-04-25T03:07:55.174Z,58.77
2023-04-25T03:08:55.240Z,59.32
2023-04-25T03:09:55.320Z,58.43
2023-04-25T03:10:55.383Z,60.06
2023-04-25T03:11:55.405Z,58.87
2023-04-25T03:12:55.487Z,59.42
2023-04-25T03:13:55.578Z,61.45
2023-04-25T03:14:55.600Z,62.43
2023-04-25T03:15:55.676Z,60.79
2023-04-25T03:16:55.807Z,60.79
2023-04-25T03:17:55.858Z,63.26
2023-04-25T03:18:55.876Z,63.29
2023-04-25T03:19:55.940Z,63.88
2023-04-25T03:20:55.972Z,65.21
2023-04-25T03:21:56.026Z,65.71
2023-04-25T03:22:56.074Z,67.32
2023-04-25T03:23:56.141Z,66.61
2023-04-25T03:24:56.188Z,70.32
2023-04-25T03:25:56.239Z,69.72
2023-04-25T03:26:56.297Z,70.38
2023-04-25T03:27:56.341Z,71.70
2023-04-25T03:28:56.426Z,75.09
2023-04-25T03:29:56.452Z,75.77
2023-04-25T03:30:56.486Z,75.79
2023-04-25T03:31:56.577Z,76.67
2023-04-25T03:32:56.645Z,77.52
2023-04-25T03:33:56.623Z,77.98
2023-04-25T03:34:56.690Z,79.09
2023-04-25T03:35:56.691Z,78.91
2023-04-25T03:36:56.729Z,78.84
2023-04-25T03:37:56.795Z,79.42
2023-04-25T03:38:56.825Z,80.23
2023-04-25T03:39:56.863Z,80.44
2023-04-25T03:40:56.892Z,80.21
2023-04-25T03:41:56.918Z,80.43
2023-04-25T03:42:56.955Z,81.24
2023-04-25T03:43:56.975Z,79.53
2023-04-25T03:44:56.988Z,80.76
2023-04-25T03:45:57.031Z,80.43
2023-04-25T03:46:57.047Z,81.23
2023-04-25T03:47:57.100Z,81.47
2023-04-25T03:48:57.073Z,83.38
2023-04-25T03:49:57.091Z,81.06
2023-04-25T03:50:57.116Z,81.45
2023-04-25T03:51:57.147Z,81.65
2023-04-25T03:52:57.150Z,82.32
2023-04-25T03:53:57.153Z,80.14
2023-04-25T03:54:57.128Z,80.90
2023-04-25T03:55:57.134Z,84.32
2023-04-25T03:56:57.158Z,81.27
2023-04-25T03:57:57.174Z,83.65
2023-04-25T03:58:57.163Z,82.77
2023-04-25T03:59:57.169Z,81.51
2023-04-25T04:00:57.189Z,82.41
2023-04-25T04:01:57.170Z,83.36
2023-04-25T04:02:57.321Z,83.35
2023-04-25T04:03:57.678Z,81.94
2023-04-25T04:04:57.297Z,81.85
2023-04-25T04:05:57.259Z,82.91
2023-04-25T04:06:57.214Z,81.86
2023-04-25T04:07:57.179Z,82.46
2023-04-25T04:08:57.204Z,82.91
2023-04-25T04:09:57.175Z,82.57
2023-04-25T04:10:57.181Z,80.89
2023-04-25T04:11:57.188Z,82.97
2023-04-25T04:12:57.158Z,83.87
2023-04-25T04:13:57.159Z,83.99
2023-04-25T04:14:57.175Z,82.14
2023-04-25T04:15:57.220Z,81.86
2023-04-25T04:16:57.157Z,82.10
2023-04-25T04:17:57.197Z,82.97
2023-04-25T04:18:57.134Z,83.01
2023-04-25T04:19:57.141Z,82.71
2023-04-25T04:20:57.110Z,84.16
2023-04-25T04:21:57.115Z,82.39
2023-04-25T04:22:57.084Z,83.68
2023-04-25T04:23:57.084Z,82.08
2023-04-25T04:24:57.077Z,84.09
2023-04-25T04:25:57.063Z,84.01
2023-04-25T04:26:57.031Z,83.57
2023-04-25T04:27:57.039Z,83.44
2023-04-25T04:28:56.997Z,84.67
2023-04-25T04:29:56.980Z,83.91
2023-04-25T04:30:56.993Z,84.22
2023-04-25T04:31:57.022Z,83.91
2023-04-25T04:32:57.085Z,84.20
2023-04-25T04:33:56.937Z,84.51
2023-04-25T04:34:56.907Z,84.66
2023-04-25T04:35:56.887Z,84.26
2023-04-25T04:36:56.881Z,84.64
2023-04-25T04:37:56.861Z,84.25
2023-04-25T04:38:56.873Z,83.30
2023-04-25T04:39:56.835Z,84.22
2023-04-25T04:40:56.842Z,83.69
2023-04-25T04:41:56.792Z,84.27
2023-04-25T04:42:56.780Z,85.18
2023-04-25T04:43:56.762Z,83.80
2023-04-25T04:44:56.775Z,84.72
2023-04-25T04:45:56.751Z,83.64
2023-04-25T04:46:56.844Z,84.60
2023-04-25T04:47:56.823Z,84.17
2023-04-25T04:48:56.707Z,83.81
2023-04-25T04:49:56.718Z,84.38
2023-04-25T04:50:56.705Z,84.11
2023-04-25T04:51:58.399Z,84.92
2023-04-25T04:52:56.636Z,84.28
2023-04-25T04:53:56.618Z,85.22
2023-04-25T04:54:56.603Z,83.92
2023-04-25T04:55:56.622Z,84.57
2023-04-25T04:56:56.576Z,85.90
2023-04-25T04:57:56.554Z,85.35
2023-04-25T04:58:56.558Z,84.96
2023-04-25T04:59:56.537Z,86.67
2023-04-25T05:01:03.586Z,85.52
2023-04-25T05:01:56.494Z,85.72
2023-04-25T05:02:56.626Z,85.94
2023-04-25T05:03:57.033Z,86.10
2023-04-25T05:04:56.472Z,86.79
2023-04-25T05:05:56.469Z,86.21
2023-04-25T05:06:56.449Z,85.19
2023-04-25T05:07:56.437Z,86.02
2023-04-25T05:08:56.421Z,86.96
2023-04-25T05:09:56.367Z,86.07
2023-04-25T05:10:56.393Z,85.32
2023-04-25T05:11:56.350Z,85.88
2023-04-25T05:12:56.346Z,84.93
2023-04-25T05:13:56.331Z,86.99
2023-04-25T05:14:56.318Z,85.25
2023-04-25T05:15:56.278Z,85.25
2023-04-25T05:16:56.341Z,86.75
2023-04-25T05:17:56.294Z,85.52
2023-04-25T05:18:56.217Z,85.70
2023-04-25T05:19:56.270Z,86.42
2023-04-25T05:20:56.179Z,86.96
2023-04-25T05:21:56.171Z,86.22
2023-04-25T05:22:56.167Z,87.07
2023-04-25T05:23:56.141Z,86.38
2023-04-25T05:24:56.382Z,85.90
2023-04-25T05:25:56.099Z,86.36
2023-04-25T05:26:56.076Z,86.78
2023-04-25T05:27:56.074Z,87.07
2023-04-25T05:28:56.060Z,86.96
2023-04-25T05:29:56.272Z,85.96
2023-04-25T05:30:55.994Z,87.72
2023-04-25T05:31:56.010Z,88.89
2023-04-25T05:32:56.014Z,87.99
2023-04-25T05:33:55.986Z,89.50
2023-04-25T05:34:56.325Z,87.68
2023-04-25T05:35:55.952Z,91.05
2023-04-25T05:36:55.927Z,92.64
2023-04-25T05:37:55.873Z,92.43
2023-04-25T05:38:55.873Z,91.35
2023-04-25T05:39:56.323Z,96.48
2023-04-25T05:40:55.844Z,91.64
2023-04-25T05:41:55.834Z,102.46
2023-04-25T05:42:55.800Z,100.25
2023-04-25T05:43:57.906Z,101.64
2023-04-25T05:44:55.956Z,109.02
2023-04-25T05:46:03.080Z,110.67
2023-04-25T05:46:55.994Z,110.90
2023-04-25T05:47:56.007Z,115.37
2023-04-25T05:48:55.945Z,119.83
2023-04-25T05:49:55.917Z,209.98
2023-04-25T05:50:55.909Z,292.99
2023-04-25T05:51:55.886Z,239.72
2023-04-25T05:52:55.870Z,224.93
2023-04-25T05:53:55.860Z,221.89
2023-04-25T05:54:55.814Z,210.67
2023-04-25T05:55:55.897Z,213.83
2023-04-25T05:56:55.785Z,209.11
2023-04-25T05:57:55.796Z,211.59
2023-04-25T05:58:55.748Z,207.83
2023-04-25T05:59:55.733Z,211.32
2023-04-25T06:00:55.784Z,217.46
2023-04-25T06:01:55.723Z,212.02
2023-04-25T06:02:55.827Z,211.27
2023-04-25T06:03:55.909Z,234.02
2023-04-25T06:04:55.758Z,244.56
2023-04-25T06:05:55.707Z,259.83
2023-04-25T06:06:55.551Z,260.67
2023-04-25T06:07:55.532Z,256.91
2023-04-25T06:08:55.524Z,226.07
2023-04-25T06:09:55.491Z,215.18
2023-04-25T06:10:55.534Z,205.66
2023-04-25T06:11:55.428Z,188.15
2023-04-25T06:12:55.441Z,187.50
2023-04-25T06:13:55.413Z,190.67
2023-04-25T06:14:55.372Z,184.77
2023-04-25T06:15:55.422Z,187.50
2023-04-25T06:16:55.378Z,180.80
2023-04-25T06:17:55.400Z,162.40
2023-04-25T06:18:55.314Z,156.67
2023-04-25T06:19:55.279Z,155.34
2023-04-25T06:20:55.293Z,158.25
2023-04-25T06:21:55.235Z,149.15
2023-04-25T06:22:55.264Z,141.23
2023-04-25T06:23:55.241Z,147.61
2023-04-25T06:24:55.240Z,158.41
2023-04-25T06:25:55.285Z,138.03
2023-04-25T06:26:55.300Z,129.05
2023-04-25T06:27:55.340Z,126.55
2023-04-25T06:28:55.353Z,129.69
2023-04-25T06:29:55.352Z,121.42
2023-04-25T06:30:55.366Z,119.39
2023-04-25T06:31:55.357Z,116.69
2023-04-25T06:32:55.399Z,116.40
2023-04-25T06:33:55.325Z,117.49
2023-04-25T06:34:55.355Z,114.26
2023-04-25T06:35:55.386Z,114.88
2023-04-25T06:36:55.396Z,125.89
2023-04-25T06:37:55.428Z,125.71
2023-04-25T06:38:55.472Z,107.64
2023-04-25T06:39:55.518Z,102.76
2023-04-25T06:40:55.826Z,122.29
2023-04-25T06:41:55.572Z,127.15
2023-04-25T06:42:55.616Z,126.74
2023-04-25T06:43:55.613Z,147.48
2023-04-25T06:44:55.722Z,143.63
2023-04-25T06:45:55.820Z,147.03
2023-04-25T06:46:55.773Z,150.46
2023-04-25T06:47:55.889Z,137.35
2023-04-25T06:48:55.840Z,143.71
2023-04-25T06:49:55.862Z,144.75
2023-04-25T06:50:55.934Z,149.24
2023-04-25T06:51:55.951Z,153.75
2023-04-25T06:52:55.989Z,158.14
2023-04-25T06:53:55.988Z,153.18
2023-04-25T06:54:55.997Z,169.05
2023-04-25T06:55:56.057Z,170.87
2023-04-25T06:56:56.091Z,168.26
2023-04-25T06:57:56.109Z,174.89
2023-04-25T06:58:56.101Z,159.66
2023-04-25T06:59:56.121Z,160.23
2023-04-25T07:00:56.223Z,159.62
2023-04-25T07:01:56.190Z,147.38
2023-04-25T07:02:56.334Z,151.54
2023-04-25T07:03:56.374Z,170.14
2023-04-25T07:04:56.277Z,171.27
2023-04-25T07:05:56.228Z,171.05
2023-04-25T07:06:56.354Z,164.69
2023-04-25T07:07:56.249Z,168.60
2023-04-25T07:08:56.276Z,168.46
2023-04-25T07:09:56.303Z,168.51
2023-04-25T07:10:56.290Z,148.22
2023-04-25T07:11:56.351Z,165.71
2023-04-25T07:12:56.326Z,175.37
2023-04-25T07:13:56.405Z,192.12
2023-04-25T07:14:56.477Z,200.00
2023-04-25T07:15:57.538Z,198.71
2023-04-25T07:16:56.343Z,200.34
2023-04-25T07:17:56.463Z,201.77
2023-04-25T07:18:56.234Z,207.47
2023-04-25T07:19:56.205Z,225.86
2023-04-25T07:20:56.186Z,208.57
2023-04-25T07:21:56.338Z,213.67
2023-04-25T07:22:56.137Z,215.12
2023-04-25T07:23:56.063Z,217.45
2023-04-25T07:24:56.073Z,212.75
2023-04-25T07:25:56.054Z,230.84
2023-04-25T07:26:56.387Z,239.97
2023-04-25T07:27:55.967Z,237.29
2023-04-25T07:28:55.944Z,246.70
2023-04-25T07:29:55.892Z,244.44
2023-04-25T07:30:55.849Z,248.47
2023-04-25T07:31:55.949Z,225.70
2023-04-25T07:32:55.790Z,215.61
2023-04-25T07:33:55.741Z,209.21
2023-04-25T07:34:55.753Z,207.67
2023-04-25T07:35:55.728Z,207.07
2023-04-25T07:36:55.946Z,209.69
2023-04-25T07:37:55.734Z,207.82
2023-04-25T07:38:55.697Z,209.22
2023-04-25T07:39:55.666Z,207.37
2023-04-25T07:40:55.733Z,225.97
2023-04-25T07:41:55.859Z,240.52
2023-04-25T07:42:55.664Z,240.93
2023-04-25T07:43:56.690Z,233.16
2023-04-25T07:44:55.638Z,211.40
2023-04-25T07:45:55.623Z,201.92
2023-04-25T07:46:55.914Z,198.52
2023-04-25T07:47:55.652Z,201.11
2023-04-25T07:48:55.647Z,190.41
2023-04-25T07:49:55.623Z,187.27
2023-04-25T07:50:55.646Z,172.50
2023-04-25T07:51:55.643Z,158.88
2023-04-25T07:52:55.681Z,143.38
2023-04-25T07:53:55.674Z,137.11
2023-04-25T07:54:55.699Z,138.16
2023-04-25T07:55:55.708Z,130.49
2023-04-25T07:56:55.753Z,112.31
2023-04-25T07:57:55.784Z,125.94
2023-04-25T07:58:55.785Z,122.58
2023-04-25T07:59:55.780Z,136.93
2023-04-25T08:00:55.802Z,115.87
2023-04-25T08:01:55.891Z,109.02
2023-04-25T08:02:56.037Z,102.05
2023-04-25T08:03:55.995Z,97.92
2023-04-25T08:04:55.966Z,114.55
2023-04-25T08:05:55.949Z,103.93
2023-04-25T08:06:55.972Z,97.98
2023-04-25T08:07:55.983Z,92.33
2023-04-25T08:08:56.000Z,98.96
2023-04-25T08:09:56.024Z,106.79
2023-04-25T08:10:56.051Z,109.68
2023-04-25T08:11:56.424Z,113.27
2023-04-25T08:12:56.135Z,102.19
2023-04-25T08:13:56.114Z,89.30
2023-04-25T08:14:56.172Z,85.20
2023-04-25T08:15:56.238Z,59.82
2023-04-25T08:16:56.215Z,58.67
2023-04-25T08:17:56.375Z,46.19
2023-04-25T08:18:56.312Z,52.88
2023-04-25T08:19:56.313Z,54.08
2023-04-25T08:20:56.394Z,50.08
2023-04-25T08:21:56.398Z,55.66
2023-04-25T08:22:56.433Z,61.75
2023-04-25T08:23:56.453Z,59.03
2023-04-25T08:24:56.492Z,71.72
2023-04-25T08:25:56.534Z,61.39
2023-04-25T08:26:56.940Z,65.01
2023-04-25T08:27:56.618Z,63.03
2023-04-25T08:28:56.631Z,43.76
2023-04-25T08:29:57.291Z,27.11
2023-04-25T08:30:56.724Z,34.35
2023-04-25T08:31:56.943Z,40.66
2023-04-25T08:32:56.777Z,34.58
2023-04-25T08:33:56.821Z,29.39
2023-04-25T08:34:56.892Z,24.89
2023-04-25T08:35:57.059Z,25.04
2023-04-25T08:36:57.416Z,19.02
2023-04-25T08:37:57.025Z,24.55
2023-04-25T08:38:57.341Z,25.00
2023-04-25T08:39:57.082Z,27.04
2023-04-25T08:40:57.133Z,26.76
2023-04-25T08:41:57.120Z,25.47
2023-04-25T08:42:57.219Z,25.00
2023-04-25T08:43:57.175Z,24.95
2023-04-25T08:44:57.152Z,25.00
2023-04-25T08:45:57.138Z,26.19
2023-04-25T08:46:57.462Z,32.01
2023-04-25T08:47:57.182Z,32.72
2023-04-25T08:48:57.882Z,35.89
2023-04-25T08:49:57.141Z,35.22
2023-04-25T08:50:57.163Z,43.57
2023-04-25T08:51:57.418Z,62.55
2023-04-25T08:52:57.137Z,70.47
2023-04-25T08:53:58.806Z,83.47
2023-04-25T08:54:58.092Z,84.41
2023-04-25T08:55:57.150Z,91.93
2023-04-25T08:56:57.083Z,89.84
2023-04-25T08:57:57.126Z,83.00
2023-04-25T08:58:57.042Z,80.25
2023-04-25T08:59:57.036Z,75.07
2023-04-25T09:00:57.162Z,75.02
2023-04-25T09:01:57.398Z,72.97
2023-04-25T09:02:57.062Z,78.77
2023-04-25T09:03:57.022Z,85.81
2023-04-25T09:04:56.945Z,104.86
2023-04-25T09:05:56.970Z,135.66
2023-04-25T09:06:57.250Z,115.62
2023-04-25T09:07:57.106Z,124.36
2023-04-25T09:08:57.149Z,123.47
2023-04-25T09:09:57.125Z,157.39
2023-04-25T09:10:57.205Z,171.64
2023-04-25T09:11:57.294Z,130.89
2023-04-25T09:12:57.322Z,143.14
2023-04-25T09:13:57.280Z,120.03
2023-04-25T09:14:57.312Z,111.07
2023-04-25T09:15:57.394Z,90.85
2023-04-25T09:16:58.005Z,80.11
2023-04-25T09:17:57.511Z,69.50
2023-04-25T09:18:57.515Z,73.40
2023-04-25T09:19:57.550Z,55.00
2023-04-25T09:21:01.891Z,47.27
2023-04-25T09:21:57.554Z,47.33
2023-04-25T09:22:57.575Z,47.49
2023-04-25T09:23:57.520Z,45.70
2023-04-25T09:24:57.517Z,49.65
2023-04-25T09:25:57.507Z,53.99
2023-04-25T09:26:57.528Z,61.70
2023-04-25T09:27:57.461Z,50.14
2023-04-25T09:28:57.454Z,43.71
2023-04-25T09:29:57.432Z,33.07
2023-04-25T09:30:57.410Z,32.41
2023-04-25T09:31:57.454Z,32.46
2023-04-25T09:32:57.426Z,26.24
2023-04-25T09:33:57.387Z,34.19
2023-04-25T09:34:57.345Z,35.88
2023-04-25T09:35:57.365Z,49.25
2023-04-25T09:36:57.452Z,49.90
2023-04-25T09:37:57.973Z,56.03
2023-04-25T09:38:57.538Z,61.31
2023-04-25T09:39:57.580Z,67.74
2023-04-25T09:40:57.637Z,86.31
2023-04-25T09:41:57.674Z,94.71
2023-04-25T09:42:57.963Z,85.34
2023-04-25T09:43:58.012Z,89.69
2023-04-25T09:44:57.801Z,91.52
2023-04-25T09:45:59.070Z,86.81
2023-04-25T09:46:57.863Z,86.56
2023-04-25T09:47:57.987Z,83.72
2023-04-25T09:48:57.947Z,74.12
2023-04-25T09:49:57.973Z,71.87
2023-04-25T09:50:58.037Z,71.30
2023-04-25T09:51:58.078Z,66.65
2023-04-25T09:52:58.126Z,62.30
2023-04-25T09:53:58.177Z,62.01
2023-04-25T09:54:58.208Z,61.06
2023-04-25T09:55:58.248Z,59.99
2023-04-25T09:56:58.325Z,51.65
2023-04-25T09:57:58.470Z,48.72
2023-04-25T09:58:58.300Z,40.82
2023-04-25T09:59:58.280Z,42.15
2023-04-25T10:00:58.330Z,40.56
2023-04-25T10:01:58.320Z,41.84
2023-04-25T10:02:58.315Z,42.61
2023-04-25T10:03:58.396Z,43.74
2023-04-25T10:04:58.431Z,41.14
2023-04-25T10:05:58.275Z,40.75
2023-04-25T10:06:58.294Z,40.82
2023-04-25T10:07:58.328Z,37.98
2023-04-25T10:08:58.353Z,31.95
2023-04-25T10:09:58.329Z,29.14
2023-04-25T10:10:58.376Z,25.31
2023-04-25T10:11:58.449Z,25.52
2023-04-25T10:12:58.397Z,25.93
2023-04-25T10:13:58.462Z,25.53
2023-04-25T10:14:58.491Z,26.44
2023-04-25T10:15:58.519Z,28.23
2023-04-25T10:16:58.522Z,28.19
2023-04-25T10:17:58.537Z,32.73
2023-04-25T10:18:58.588Z,34.66
2023-04-25T10:19:58.625Z,34.93
2023-04-25T10:20:58.585Z,34.76
2023-04-25T10:21:58.590Z,35.07
2023-04-25T10:22:58.635Z,37.46
2023-04-25T10:23:58.636Z,38.41
2023-04-25T10:24:58.655Z,33.58
2023-04-25T10:25:58.731Z,35.06
2023-04-25T10:26:58.693Z,36.08
2023-04-25T10:27:58.738Z,33.50
2023-04-25T10:28:59.471Z,34.96
2023-04-25T10:29:58.729Z,35.39
2023-04-25T10:30:58.853Z,32.07
2023-04-25T10:31:58.798Z,29.32
2023-04-25T10:32:58.773Z,30.92
2023-04-25T10:33:58.779Z,33.39
2023-04-25T10:34:58.784Z,34.03
2023-04-25T10:35:58.763Z,36.60
2023-04-25T10:36:58.765Z,38.39
2023-04-25T10:37:58.960Z,41.93
2023-04-25T10:38:58.790Z,47.74
2023-04-25T10:39:58.821Z,57.18
2023-04-25T10:40:58.802Z,64.75
2023-04-25T10:41:58.850Z,71.76
2023-04-25T10:42:58.967Z,91.63
2023-04-25T10:43:58.781Z,97.68
2023-04-25T10:44:58.796Z,104.03
2023-04-25T10:45:58.875Z,112.92
2023-04-25T10:46:58.995Z,119.49
2023-04-25T10:47:59.010Z,127.38
2023-04-25T10:48:58.904Z,131.25
2023-04-25T10:49:58.916Z,135.04
2023-04-25T10:50:58.976Z,141.24
2023-04-25T10:51:58.973Z,152.60
2023-04-25T10:52:59.046Z,152.88
2023-04-25T10:53:59.459Z,158.19
2023-04-25T10:54:59.123Z,159.43
2023-04-25T10:55:59.175Z,162.49
2023-04-25T10:56:59.219Z,171.66
2023-04-25T10:57:59.552Z,176.22
2023-04-25T10:58:59.550Z,178.80
2023-04-25T10:59:59.312Z,188.25
2023-04-25T11:00:59.317Z,187.63
2023-04-25T11:01:59.415Z,194.44
2023-04-25T11:02:59.533Z,193.49
2023-04-25T11:03:59.900Z,197.45
2023-04-25T11:04:59.451Z,191.38
2023-04-25T11:05:59.444Z,195.81
2023-04-25T11:08:07.779Z,200.09
2023-04-25T11:09:00.846Z,191.33
2023-04-25T11:09:59.475Z,190.57
2023-04-25T11:10:59.351Z,186.06
2023-04-25T11:11:59.425Z,183.60
2023-04-25T11:12:59.342Z,175.74
2023-04-25T11:13:59.274Z,208.55
2023-04-25T11:14:59.206Z,258.46
2023-04-25T11:16:07.397Z,201.91
2023-04-25T11:18:00.248Z,200.54
2023-04-25T11:18:59.499Z,195.77
2023-04-25T11:19:59.095Z,190.70
2023-04-25T11:20:59.051Z,193.87
2023-04-25T11:21:59.010Z,185.72
2023-04-25T11:22:58.982Z,181.84
2023-04-25T11:23:58.996Z,187.85
2023-04-25T11:24:58.997Z,197.75
2023-04-25T11:25:58.936Z,193.20
2023-04-25T11:26:58.871Z,189.34
2023-04-25T11:27:58.869Z,199.18
2023-04-25T11:28:58.989Z,198.04
2023-04-25T11:29:58.792Z,220.62
2023-04-25T11:30:58.790Z,227.15
2023-04-25T11:31:58.772Z,233.10
2023-04-25T11:32:58.765Z,232.96
2023-04-25T11:33:59.007Z,234.54
2023-04-25T11:34:58.666Z,235.77
2023-04-25T11:35:58.598Z,235.76
2023-04-25T11:36:58.572Z,236.10
2023-04-25T11:37:58.742Z,236.89
2023-04-25T11:38:59.000Z,237.51
2023-04-25T11:39:58.544Z,238.68
2023-04-25T11:40:58.489Z,238.12
2023-04-25T11:41:58.541Z,238.33
2023-04-25T11:42:58.448Z,237.89
2023-04-25T11:43:58.886Z,237.68
2023-04-25T11:44:58.429Z,239.35
2023-04-25T11:45:58.504Z,238.00
2023-04-25T11:46:58.390Z,237.56
2023-04-25T11:47:58.455Z,236.97
2023-04-25T11:48:58.436Z,236.67
2023-04-25T11:49:58.471Z,236.86
2023-04-25T11:50:58.502Z,235.90
2023-04-25T11:51:58.536Z,236.98
2023-04-25T11:52:58.567Z,236.50
2023-04-25T11:53:58.591Z,234.73
2023-04-25T11:54:58.635Z,233.96
2023-04-25T11:55:58.637Z,234.28
2023-04-25T11:56:58.682Z,233.59
2023-04-25T11:57:58.682Z,233.80
2023-04-25T11:58:58.759Z,232.75
2023-04-25T11:59:58.766Z,233.30
2023-04-25T12:00:58.793Z,231.97
2023-04-25T12:01:58.906Z,231.42
2023-04-25T12:02:59.006Z,231.57
2023-04-25T12:03:59.024Z,230.69
2023-04-25T12:05:01.118Z,231.05
2023-04-25T12:06:00.001Z,231.14
2023-04-25T12:06:58.870Z,231.13
2023-04-25T12:07:58.820Z,231.67
2023-04-25T12:08:58.806Z,231.44
2023-04-25T12:09:58.769Z,231.47
2023-04-25T12:10:58.736Z,231.63
2023-04-25T12:11:58.717Z,231.22
2023-04-25T12:12:58.698Z,230.54
2023-04-25T12:13:58.696Z,230.62
2023-04-25T12:14:58.652Z,230.86
2023-04-25T12:15:58.674Z,231.01
2023-04-25T12:16:58.667Z,229.61
2023-04-25T12:17:58.705Z,226.42
2023-04-25T12:18:58.685Z,223.91
2023-04-25T12:19:58.774Z,222.31
2023-04-25T12:20:58.757Z,218.94
2023-04-25T12:21:59.523Z,219.22
2023-04-25T12:22:58.824Z,217.82
2023-04-25T12:23:58.882Z,214.42
2023-04-25T12:24:58.896Z,212.40
2023-04-25T12:25:58.951Z,210.79
2023-04-25T12:26:58.948Z,196.25
2023-04-25T12:27:58.986Z,191.33
2023-04-25T12:28:59.062Z,174.64
2023-04-25T12:29:59.064Z,174.30
2023-04-25T12:30:59.181Z,155.90
2023-04-25T12:31:59.171Z,167.46
2023-04-25T12:32:59.164Z,169.09
2023-04-25T12:33:59.284Z,167.40
2023-04-25T12:34:59.207Z,174.53
2023-04-25T12:35:59.271Z,170.53
2023-04-25T12:36:59.299Z,166.60
2023-04-25T12:37:59.291Z,165.31
2023-04-25T12:38:59.350Z,160.20
2023-04-25T12:39:59.382Z,169.25
2023-04-25T12:40:59.429Z,250.00
2023-04-25T12:41:59.470Z,209.21
2023-04-25T12:42:59.473Z,187.14
2023-04-25T12:43:59.514Z,276.75
2023-04-25T12:44:59.524Z,242.55
2023-04-25T12:45:59.549Z,218.08